Meteorología y climatología de Navarra
Datos de la estación - Meteo Navarra

Estación de Eltzaburu GN

Altitud 588 m.


Datos desde el 14/08/2019 hasta el 15/08/2019 en horario solar
Los datos son PROVISIONALES

Anterior Página 1 de 1 Siguiente Descargar: Formato para Excel 2000 o superior   Formato csv   Formato para OpenOffice Calc
Fecha Temperatura Humedad relativa Radiación global Insolación Precipitación Vel. viento 10 m Vel. viento 10 m Dir. viento 10 m
ºC % W/m² s l/m² m/s km/h º
14/08/2019 0:00 10.3 99 0.0 0 0.0 0.2 0.7 166
14/08/2019 0:10 10.0 100 0.0 0 0.0 0.1 0.2 157
14/08/2019 0:20 10.0 100 0.0 0 0.0 0.3 1.2 287
14/08/2019 0:30 9.8 100 0.0 0 0.0 0.4 1.4 336
14/08/2019 0:40 9.6 100 0.0 0 0.0 0.1 0.4 223
14/08/2019 0:50 9.3 100 0.0 0 0.0 0.5 1.7 322
14/08/2019 1:00 9.0 100 0.0 0 0.0 0.6 2.2 308
14/08/2019 1:10 8.8 100 0.0 0 0.0 0.9 3.2 359
14/08/2019 1:20 9.1 100 0.0 0 0.0 0.6 2.1 40
14/08/2019 1:30 8.6 100 0.0 0 0.0 0.5 1.8 149
14/08/2019 1:40 8.9 100 0.0 0 0.0 0.4 1.5 157
14/08/2019 1:50 8.9 100 0.0 0 0.0 0.2 0.7 185
14/08/2019 2:00 8.4 100 0.0 0 0.0 0.5 1.9 134
14/08/2019 2:10 8.1 100 0.0 0 0.0 0.3 0.9 108
14/08/2019 2:20 8.0 100 0.0 0 0.0 0.4 1.4 148
14/08/2019 2:30 7.8 100 0.0 0 0.0 0.5 1.8 165
14/08/2019 2:40 7.8 100 0.0 0 0.0 0.4 1.4 30
14/08/2019 2:50 7.7 100 0.0 0 0.0 0.3 1.1 17
14/08/2019 3:00 7.6 100 0.0 0 0.0 0.0 0.0 0
14/08/2019 3:10 7.5 100 0.0 0 0.0 0.0 0.1 223
14/08/2019 3:20 7.3 100 0.0 0 0.0 0.1 0.5 349
14/08/2019 3:30 7.5 100 0.0 0 0.0 0.4 1.4 340
14/08/2019 3:40 8.0 100 0.0 0 0.0 0.2 0.9 359
14/08/2019 3:50 7.9 100 0.0 0 0.0 0.2 0.8 353
14/08/2019 4:00 7.6 100 0.0 0 0.0 0.0 0.1 25
14/08/2019 4:10 7.4 100 0.0 0 0.0 0.3 1.2 102
14/08/2019 4:20 6.9 100 0.0 0 0.0 0.2 0.6 141
14/08/2019 4:30 6.7 100 0.0 0 0.0 0.1 0.5 195
14/08/2019 4:40 6.6 100 0.0 0 0.0 0.0 0.1 321
14/08/2019 4:50 6.5 100 0.0 0 0.0 0.9 3.2 344
14/08/2019 5:00 6.9 100 0.0 0 0.0 0.2 0.8 22
14/08/2019 5:10 6.9 100 0.0 0 0.0 0.9 3.2 344
14/08/2019 5:20 7.3 100 0.0 0 0.0 1.0 3.6 331
14/08/2019 5:30 7.2 100 0.0 0 0.0 0.7 2.6 128
14/08/2019 5:40 6.6 100 10.3 0 0.0 0.8 3.0 120
14/08/2019 5:50 6.6 100 32.0 0 0.0 0.3 1.2 110
14/08/2019 6:00 6.5 100 39.0 0 0.0 0.1 0.2 306
14/08/2019 6:10 6.5 100 62.4 0 0.0 0.2 0.7 348
14/08/2019 6:20 6.6 100 54.8 0 0.0 0.9 3.1 3
14/08/2019 6:30 6.5 100 78.6 0 0.0 0.9 3.2 8
14/08/2019 6:40 6.9 100 81.4 0 0.0 0.9 3.4 3
14/08/2019 6:50 7.5 100 207.2 486 0.0 0.4 1.4 22
14/08/2019 7:00 8.4 100 261.8 600 0.0 0.1 0.5 353
14/08/2019 7:10 8.7 100 250.9 532 0.0 0.4 1.5 172
14/08/2019 7:20 8.9 100 305.1 600 0.0 0.5 1.9 175
14/08/2019 7:30 9.6 100 340.9 600 0.0 0.7 2.6 186
14/08/2019 7:40 10.1 100 378.8 600 0.0 0.2 0.8 190
14/08/2019 7:50 10.6 100 413.9 600 0.0 0.6 2.1 195
14/08/2019 8:00 11.1 100 449.3 600 0.0 0.4 1.3 197
14/08/2019 8:10 11.9 97 482.9 600 0.0 0.3 1.1 181
14/08/2019 8:20 13.1 92 518.2 600 0.0 0.7 2.6 200
14/08/2019 8:30 14.1 88 537.6 600 0.0 0.9 3.2 187
14/08/2019 8:40 15.0 82 562.3 600 0.0 1.1 3.9 170
14/08/2019 8:50 15.6 75 589.2 600 0.0 1.2 4.2 176
14/08/2019 9:00 16.3 70 622.1 600 0.0 1.0 3.5 151
14/08/2019 9:10 17.1 63 650.5 600 0.0 1.0 3.5 179
14/08/2019 9:20 17.4 61 682.4 600 0.0 1.1 3.9 159
14/08/2019 9:30 18.5 53 707.4 600 0.0 0.6 2.2 171
14/08/2019 9:40 19.3 52 728.3 600 0.0 0.7 2.6 220
14/08/2019 9:50 19.6 49 755.4 600 0.0 0.4 1.5 200
14/08/2019 10:00 20.3 49 774.5 600 0.0 0.6 2.2 86
14/08/2019 10:10 20.8 49 793.7 600 0.0 0.5 1.8 160
14/08/2019 10:20 21.4 46 812.0 600 0.0 0.9 3.3 179
14/08/2019 10:30 21.7 47 839.0 600 0.0 1.5 5.2 202
14/08/2019 10:40 21.8 45 850.0 600 0.0 0.9 3.1 223
14/08/2019 10:50 22.2 47 860.0 600 0.0 1.7 6.0 220
14/08/2019 11:00 22.4 46 879.0 600 0.0 1.1 3.9 244
14/08/2019 11:10 22.9 46 902.0 600 0.0 1.0 3.4 272
14/08/2019 11:20 23.7 47 916.0 600 0.0 2.0 7.3 258
14/08/2019 11:30 23.8 45 923.0 600 0.0 1.8 6.5 277
14/08/2019 11:40 23.9 45 926.0 600 0.0 1.4 4.9 267
14/08/2019 11:50 24.5 44 927.0 600 0.0 2.1 7.4 257
14/08/2019 12:00 24.7 42 931.0 600 0.0 2.3 8.2 292
14/08/2019 12:10 24.6 40 930.0 600 0.0 3.1 11.2 305
14/08/2019 12:20 24.4 40 930.0 600 0.0 2.9 10.3 312
14/08/2019 12:30 24.3 40 927.0 600 0.0 3.9 14.2 351
14/08/2019 12:40 24.3 41 926.0 600 0.0 4.0 14.3 332
14/08/2019 12:50 24.3 42 925.0 600 0.0 4.1 14.6 329
14/08/2019 13:00 24.2 42 912.0 600 0.0 3.4 12.3 335
14/08/2019 13:10 24.4 43 904.0 600 0.0 2.8 10.0 311
14/08/2019 13:20 24.7 45 903.0 600 0.0 2.6 9.3 291
14/08/2019 13:30 24.6 46 890.0 600 0.0 3.4 12.2 348
14/08/2019 13:40 24.6 47 873.0 600 0.0 3.0 10.9 345
14/08/2019 13:50 24.6 46 853.0 600 0.0 3.4 12.2 357
14/08/2019 14:00 24.6 46 840.0 600 0.0 3.3 11.7 15
14/08/2019 14:10 24.4 45 824.0 600 0.0 3.6 13.0 345
14/08/2019 14:20 24.4 46 807.0 600 0.0 3.7 13.3 357
14/08/2019 14:30 24.3 47 787.9 600 0.0 3.0 10.8 0
14/08/2019 14:40 24.3 47 764.3 600 0.0 3.0 10.9 359
14/08/2019 14:50 23.9 45 743.9 600 0.0 3.6 12.9 16
14/08/2019 15:00 24.0 45 722.3 600 0.0 3.2 11.6 347
14/08/2019 15:10 24.1 45 697.6 600 0.0 3.0 10.8 337
14/08/2019 15:20 23.8 44 670.0 600 0.0 3.1 11.2 331
14/08/2019 15:30 23.7 44 643.5 600 0.0 3.3 11.8 347
14/08/2019 15:40 23.7 44 614.4 600 0.0 3.3 12.0 329
14/08/2019 15:50 23.7 44 585.7 600 0.0 3.1 11.1 350
14/08/2019 16:00 23.5 44 556.3 600 0.0 2.9 10.5 342
14/08/2019 16:10 23.3 45 525.6 600 0.0 2.8 10.1 344
14/08/2019 16:20 23.0 45 496.1 600 0.0 3.2 11.6 354
14/08/2019 16:30 22.8 45 465.9 600 0.0 3.4 12.4 0
14/08/2019 16:40 22.7 49 429.0 600 0.0 2.9 10.5 339
14/08/2019 16:50 22.6 50 405.9 600 0.0 3.1 11.1 325
14/08/2019 17:00 22.4 51 332.1 600 0.0 2.9 10.3 339
14/08/2019 17:10 21.6 53 237.1 314 0.0 3.6 12.8 339
14/08/2019 17:20 21.2 57 284.7 452 0.0 4.0 14.5 334
14/08/2019 17:30 21.5 56 270.3 600 0.0 4.1 14.8 340
14/08/2019 17:40 21.1 57 236.5 600 0.0 3.8 13.5 346
14/08/2019 17:50 20.9 57 206.9 600 0.0 3.6 13.0 343
14/08/2019 18:00 20.7 58 184.9 600 0.0 3.4 12.2 345
14/08/2019 18:10 20.3 59 94.5 222 0.0 2.9 10.5 343
14/08/2019 18:20 19.7 62 61.5 0 0.0 2.7 9.8 350
14/08/2019 18:30 19.6 63 79.8 414 0.0 1.9 6.9 338
14/08/2019 18:40 19.6 63 60.6 354 0.0 1.4 5.2 325
14/08/2019 18:50 19.3 64 16.2 0 0.0 1.2 4.3 341
14/08/2019 19:00 18.9 67 0.0 0 0.0 1.5 5.4 350
14/08/2019 19:10 18.5 69 0.0 0 0.0 1.2 4.3 352
14/08/2019 19:20 18.1 72 0.0 0 0.0 1.2 4.2 353
14/08/2019 19:30 18.1 74 0.0 0 0.0 0.8 2.9 6
14/08/2019 19:40 18.1 75 0.0 0 0.0 0.4 1.3 205
14/08/2019 19:50 18.0 75 0.0 0 0.0 0.4 1.4 175
14/08/2019 20:00 18.1 76 0.0 0 0.0 1.7 6.1 335
14/08/2019 20:10 18.0 77 0.0 0 0.0 0.9 3.1 337
14/08/2019 20:20 18.0 78 0.0 0 0.0 0.6 2.1 341
14/08/2019 20:30 17.8 79 0.0 0 0.0 0.6 2.3 2
14/08/2019 20:40 17.5 82 0.0 0 0.0 1.0 3.6 344
14/08/2019 20:50 17.1 84 0.0 0 0.0 0.9 3.2 341
14/08/2019 21:00 17.1 85 0.0 0 0.0 1.4 5.1 344
14/08/2019 21:10 16.9 87 0.0 0 0.0 1.2 4.4 354
14/08/2019 21:20 16.7 90 0.0 0 0.0 1.2 4.4 337
14/08/2019 21:30 16.8 93 0.0 0 0.0 1.1 3.9 298
14/08/2019 21:40 16.8 93 0.0 0 0.0 0.5 1.6 247
14/08/2019 21:50 16.7 92 0.0 0 0.0 0.6 2.2 281
14/08/2019 22:00 16.7 92 0.0 0 0.0 0.8 3.0 344
14/08/2019 22:10 16.8 91 0.0 0 0.0 0.9 3.1 1
14/08/2019 22:20 16.7 90 0.0 0 0.0 0.5 1.8 58
14/08/2019 22:30 16.4 93 0.0 0 0.0 0.8 2.8 160
14/08/2019 22:40 16.5 93 0.0 0 0.0 0.3 1.2 161
14/08/2019 22:50 16.7 92 0.0 0 0.0 0.3 1.2 180
14/08/2019 23:00 16.6 94 0.0 0 0.0 0.2 0.8 356
14/08/2019 23:10 16.5 95 0.0 0 0.0 0.1 0.3 59
14/08/2019 23:20 16.5 94 0.0 0 0.0 0.1 0.4 152
14/08/2019 23:30 16.3 96 0.0 0 0.0 0.1 0.5 287
14/08/2019 23:40 16.2 98 0.0 0 0.0 0.8 2.8 348
14/08/2019 23:50 16.3 99 0.0 0 0.0 0.9 3.3 0
Anterior Página 1 de 1 Siguiente

NOTA: Tipo de datos según el color:
   - Valores diarios o 10 minutos correctos
   - Valores diarios calculados a partir de un número de datos 10 minutos menor que 144 y mayor que 120, o de un número de datos semihorarios menor que 48 y mayor que 40 (caso de las estaciones de Riegos de Navarra y del MARM)
   - Valores diez minutos estimados


Contacto        Enlaces        Aviso legal